createdAt,value
2022-10-11T00:00:46.995Z,101232.59
2022-10-11T00:01:48.855Z,101234.30
2022-10-11T00:02:50.660Z,101225.65
2022-10-11T00:03:52.485Z,101234.32
2022-10-11T00:04:54.275Z,101240.41
2022-10-11T00:05:56.093Z,101242.11
2022-10-11T00:06:57.895Z,101239.48
2022-10-11T00:07:59.685Z,101245.55
2022-10-11T00:09:01.537Z,101233.35
2022-10-11T00:10:03.339Z,101241.14
2022-10-11T00:11:05.155Z,101235.98
2022-10-11T00:12:06.934Z,101242.08
2022-10-11T00:13:08.766Z,101244.69
2022-10-11T00:14:10.606Z,101238.56
2022-10-11T00:15:12.412Z,101242.90
2022-10-11T00:16:14.349Z,101236.80
2022-10-11T00:17:16.140Z,101242.05
2022-10-11T00:18:17.943Z,101239.48
2022-10-11T00:19:19.777Z,101253.39
2022-10-11T00:20:21.527Z,101242.98
2022-10-11T00:21:23.326Z,101242.98
2022-10-11T00:22:25.133Z,101244.71
2022-10-11T00:23:26.920Z,101239.53
2022-10-11T00:24:28.750Z,101237.83
2022-10-11T00:25:30.558Z,101243.09
2022-10-11T00:26:32.369Z,101244.81
2022-10-11T00:27:34.169Z,101242.23
2022-10-11T00:28:36.275Z,101255.26
2022-10-11T00:29:38.142Z,101247.50
2022-10-11T00:30:39.940Z,101241.38
2022-10-11T00:31:41.732Z,101245.69
2022-10-11T00:32:43.533Z,101248.29
2022-10-11T00:33:45.231Z,101248.32
2022-10-11T00:34:47.079Z,101243.98
2022-10-11T00:35:48.885Z,101239.55
2022-10-11T00:36:50.681Z,101243.84
2022-10-11T00:37:52.485Z,101237.80
2022-10-11T00:38:54.293Z,101238.66
2022-10-11T00:39:56.136Z,101243.06
2022-10-11T00:40:57.937Z,101246.50
2022-10-11T00:41:59.734Z,101242.13
2022-10-11T00:43:01.532Z,101241.30
2022-10-11T00:44:03.411Z,101239.55
2022-10-11T00:45:05.249Z,101250.02
2022-10-11T00:46:07.814Z,101243.98
2022-10-11T00:47:09.951Z,101244.03
2022-10-11T00:48:11.746Z,101246.69
2022-10-11T00:49:13.552Z,101244.08
2022-10-11T00:50:15.381Z,101244.05
2022-10-11T00:51:17.170Z,101249.28
2022-10-11T00:52:18.971Z,101249.31
2022-10-11T00:53:20.869Z,101247.61
2022-10-11T00:54:22.571Z,101246.73
2022-10-11T00:55:24.397Z,101250.27
2022-10-11T00:56:26.183Z,101245.92
2022-10-11T00:57:27.986Z,101255.50
2022-10-11T00:58:29.792Z,101251.13
2022-10-11T00:59:31.676Z,101245.89
2022-10-11T01:00:33.603Z,101252.84
2022-10-11T01:01:35.442Z,101243.23
2022-10-11T01:02:37.295Z,101248.47
2022-10-11T01:03:39.105Z,101247.61
2022-10-11T01:04:40.886Z,101249.34
2022-10-11T01:05:42.714Z,101251.94
2022-10-11T01:06:50.357Z,101251.08
2022-10-11T01:07:52.206Z,101247.61
2022-10-11T01:08:53.994Z,101254.50
2022-10-11T01:09:55.796Z,101255.39
2022-10-11T01:10:57.526Z,101253.68
2022-10-11T01:11:59.343Z,101247.58
2022-10-11T01:13:01.142Z,101258.00
2022-10-11T01:14:02.929Z,101251.89
2022-10-11T01:15:04.645Z,101256.20
2022-10-11T01:16:07.249Z,101259.67
2022-10-11T01:17:09.500Z,101257.10
2022-10-11T01:18:11.300Z,101253.66
2022-10-11T01:19:13.101Z,101251.92
2022-10-11T01:20:14.904Z,101249.31
2022-10-11T01:21:16.776Z,101249.28
2022-10-11T01:22:18.565Z,101255.34
2022-10-11T01:23:20.362Z,101251.00
2022-10-11T01:24:22.063Z,101251.03
2022-10-11T01:25:23.858Z,101252.79
2022-10-11T01:26:25.695Z,101257.16
2022-10-11T01:27:27.503Z,101254.57
2022-10-11T01:28:29.352Z,101257.17
2022-10-11T01:29:31.207Z,101257.16
2022-10-11T01:30:33.035Z,101258.94
2022-10-11T01:31:34.871Z,101265.02
2022-10-11T01:32:37.734Z,101264.23
2022-10-11T01:33:39.551Z,101265.99
2022-10-11T01:34:41.354Z,101272.04
2022-10-11T01:35:43.157Z,101259.83
2022-10-11T01:36:45.006Z,101269.41
2022-10-11T01:37:46.818Z,101265.94
2022-10-11T01:38:48.618Z,101266.81
2022-10-11T01:39:50.415Z,101272.86
2022-10-11T01:40:52.212Z,101262.41
2022-10-11T01:41:54.072Z,101267.62
2022-10-11T01:42:55.899Z,101273.75
2022-10-11T01:43:57.709Z,101273.75
2022-10-11T01:44:59.530Z,101268.57
2022-10-11T01:46:01.730Z,101278.98
2022-10-11T01:47:03.796Z,101276.36
2022-10-11T01:48:05.644Z,101271.15
2022-10-11T01:49:07.470Z,101272.04
2022-10-11T01:50:09.299Z,101272.04
2022-10-11T01:51:11.115Z,101269.44
2022-10-11T01:52:12.984Z,101271.20
2022-10-11T01:53:14.807Z,101264.20
2022-10-11T01:54:16.613Z,101267.62
2022-10-11T01:55:18.434Z,101271.15
2022-10-11T01:56:20.257Z,101266.81
2022-10-11T01:57:22.214Z,101277.22
2022-10-11T01:58:24.011Z,101278.12
2022-10-11T01:59:25.828Z,101285.93
2022-10-11T02:00:27.853Z,101278.96
2022-10-11T02:01:29.758Z,101279.75
2022-10-11T02:02:31.652Z,101278.83
2022-10-11T02:03:33.459Z,101275.36
2022-10-11T02:04:35.280Z,101276.23
2022-10-11T02:05:37.104Z,101278.80
2022-10-11T02:06:38.920Z,101281.41
2022-10-11T02:07:40.786Z,101283.11
2022-10-11T02:08:43.619Z,101281.35
2022-10-11T02:09:45.454Z,101282.22
2022-10-11T02:10:47.287Z,101286.59
2022-10-11T02:11:49.092Z,101285.72
2022-10-11T02:12:50.947Z,101285.74
2022-10-11T02:13:52.771Z,101282.38
2022-10-11T02:14:54.593Z,101282.38
2022-10-11T02:15:56.433Z,101291.14
2022-10-11T02:16:58.384Z,101288.53
2022-10-11T02:18:00.237Z,101283.33
2022-10-11T02:19:02.058Z,101286.83
2022-10-11T02:20:04.066Z,101289.45
2022-10-11T02:21:05.875Z,101290.34
2022-10-11T02:22:07.694Z,101289.43
2022-10-11T02:23:09.566Z,101298.08
2022-10-11T02:24:11.371Z,101287.64
2022-10-11T02:25:13.192Z,101292.77
2022-10-11T02:26:15.036Z,101293.58
2022-10-11T02:27:16.862Z,101291.91
2022-10-11T02:28:18.758Z,101290.19
2022-10-11T02:29:20.533Z,101295.45
2022-10-11T02:30:22.340Z,101292.88
2022-10-11T02:31:24.161Z,101295.50
2022-10-11T02:32:26.252Z,101294.66
2022-10-11T02:33:28.105Z,101288.61
2022-10-11T02:34:29.922Z,101298.19
2022-10-11T02:35:31.759Z,101293.00
2022-10-11T02:36:33.565Z,101301.72
2022-10-11T02:37:35.380Z,101298.24
2022-10-11T02:38:37.230Z,101302.61
2022-10-11T02:39:39.058Z,101305.23
2022-10-11T02:40:40.872Z,101305.27
2022-10-11T02:41:42.685Z,101303.53
2022-10-11T02:42:44.504Z,101306.11
2022-10-11T02:43:46.360Z,101302.64
2022-10-11T02:44:48.181Z,101306.98
2022-10-11T02:45:49.995Z,101306.08
2022-10-11T02:46:51.805Z,101300.90
2022-10-11T02:47:53.655Z,101300.03
2022-10-11T02:48:55.527Z,101297.40
2022-10-11T02:49:57.357Z,101300.84
2022-10-11T02:50:59.178Z,101306.92
2022-10-11T02:52:00.991Z,101304.32
2022-10-11T02:53:02.816Z,101299.98
2022-10-11T02:54:04.699Z,101303.47
2022-10-11T02:55:06.515Z,101302.61
2022-10-11T02:56:08.741Z,101306.11
2022-10-11T02:57:10.643Z,101305.23
2022-10-11T02:58:12.458Z,101299.16
2022-10-11T02:59:14.311Z,101313.03
2022-10-11T03:00:16.137Z,101307.80
2022-10-11T03:01:17.998Z,101304.32
2022-10-11T03:02:19.769Z,101302.56
2022-10-11T03:03:21.625Z,101298.19
2022-10-11T03:04:23.463Z,101301.72
2022-10-11T03:05:25.282Z,101307.82
2022-10-11T03:06:27.323Z,101304.34
2022-10-11T03:07:29.139Z,101309.59
2022-10-11T03:08:30.984Z,101309.59
2022-10-11T03:09:32.848Z,101310.42
2022-10-11T03:10:34.713Z,101311.27
2022-10-11T03:11:36.510Z,101310.42
2022-10-11T03:12:38.338Z,101313.03
2022-10-11T03:13:40.182Z,101306.05
2022-10-11T03:14:42.088Z,101307.82
2022-10-11T03:15:43.897Z,101309.59
2022-10-11T03:16:45.723Z,101309.59
2022-10-11T03:18:40.964Z,101303.60
2022-10-11T03:19:42.811Z,101305.98
2022-10-11T03:20:44.627Z,101305.03
2022-10-11T03:21:46.438Z,101297.14
2022-10-11T03:22:48.234Z,101304.92
2022-10-11T03:23:49.934Z,101306.59
2022-10-11T03:24:51.798Z,101305.70
2022-10-11T03:25:53.607Z,101305.73
2022-10-11T03:26:55.471Z,101309.20
2022-10-11T03:27:57.274Z,101308.31
2022-10-11T03:28:59.160Z,101308.28
2022-10-11T03:30:01.043Z,101309.99
2022-10-11T03:31:02.827Z,101304.70
2022-10-11T03:32:04.713Z,101304.70
2022-10-11T03:33:06.501Z,101303.83
2022-10-11T03:34:26.780Z,101304.67
2022-10-11T03:35:30.435Z,101308.17
2022-10-11T03:36:32.252Z,101306.48
2022-10-11T03:37:34.056Z,101307.42
2022-10-11T03:38:35.863Z,101309.16
2022-10-11T03:39:37.672Z,101313.55
2022-10-11T03:40:39.522Z,101318.78
2022-10-11T03:41:41.334Z,101317.05
2022-10-11T03:42:43.139Z,101316.23
2022-10-11T03:43:44.930Z,101317.09
2022-10-11T03:44:46.736Z,101312.79
2022-10-11T03:45:48.720Z,101311.89
2022-10-11T03:46:50.534Z,101319.65
2022-10-11T03:47:52.347Z,101315.26
2022-10-11T03:48:54.150Z,101317.83
2022-10-11T03:49:56.085Z,101314.36
2022-10-11T03:50:57.828Z,101319.56
2022-10-11T03:51:59.668Z,101320.49
2022-10-11T03:53:01.490Z,101317.83
2022-10-11T03:54:03.261Z,101317.80
2022-10-11T03:55:05.080Z,101323.88
2022-10-11T03:56:08.618Z,101316.91
2022-10-11T03:57:10.552Z,101316.88
2022-10-11T03:58:12.357Z,101322.92
2022-10-11T03:59:14.200Z,101319.45
2022-10-11T04:00:15.997Z,101322.92
2022-10-11T04:01:18.036Z,101320.31
2022-10-11T04:02:20.020Z,101316.85
2022-10-11T04:03:21.811Z,101321.16
2022-10-11T04:04:23.617Z,101317.69
2022-10-11T04:05:25.543Z,101322.00
2022-10-11T04:06:27.495Z,101325.47
2022-10-11T04:07:29.314Z,101323.77
2022-10-11T04:08:31.121Z,101321.16
2022-10-11T04:09:32.921Z,101320.29
2022-10-11T04:10:34.760Z,101318.62
2022-10-11T04:11:36.524Z,101316.07
2022-10-11T04:12:38.337Z,101324.75
2022-10-11T04:13:40.160Z,101325.61
2022-10-11T04:14:41.987Z,101318.59
2022-10-11T04:15:43.691Z,101318.45
2022-10-11T04:16:45.449Z,101318.45
2022-10-11T04:17:47.237Z,101317.55
2022-10-11T04:18:49.038Z,101310.66
2022-10-11T04:19:50.831Z,101307.19
2022-10-11T04:20:52.789Z,101321.97
2022-10-11T04:21:54.617Z,101325.44
2022-10-11T04:22:56.327Z,101324.58
2022-10-11T04:23:58.162Z,101322.84
2022-10-11T04:24:59.957Z,101329.81
2022-10-11T04:26:01.877Z,101329.84
2022-10-11T04:27:03.992Z,101333.34
2022-10-11T04:28:05.687Z,101330.73
2022-10-11T04:29:07.374Z,101325.53
2022-10-11T04:30:10.502Z,101336.87
2022-10-11T04:31:12.422Z,101328.16
2022-10-11T04:32:14.147Z,101335.94
2022-10-11T04:33:15.929Z,101336.81
2022-10-11T04:34:17.716Z,101341.15
2022-10-11T04:35:19.509Z,101341.17
2022-10-11T04:36:21.431Z,101342.08
2022-10-11T04:37:23.156Z,101337.77
2022-10-11T04:38:24.937Z,101340.37
2022-10-11T04:39:26.642Z,101341.27
2022-10-11T04:40:28.441Z,101341.23
2022-10-11T04:41:30.242Z,101345.52
2022-10-11T04:42:31.976Z,101341.13
2022-10-11T04:43:33.792Z,101341.06
2022-10-11T04:44:35.573Z,101337.59
2022-10-11T04:45:37.359Z,101345.43
2022-10-11T04:46:39.162Z,101338.52
2022-10-11T04:47:40.994Z,101343.75
2022-10-11T04:48:42.802Z,101338.63
2022-10-11T04:49:44.593Z,101338.63
2022-10-11T04:50:46.595Z,101342.13
2022-10-11T04:51:48.405Z,101348.18
2022-10-11T04:52:50.597Z,101347.31
2022-10-11T04:53:52.297Z,101351.69
2022-10-11T04:54:54.419Z,101348.20
2022-10-11T04:55:56.205Z,101350.81
2022-10-11T04:56:57.996Z,101348.20
2022-10-11T04:57:59.839Z,101352.58
2022-10-11T04:59:01.656Z,101352.61
2022-10-11T05:00:03.432Z,101358.68
2022-10-11T05:01:05.238Z,101356.92
2022-10-11T05:02:07.094Z,101356.89
2022-10-11T05:03:09.009Z,101358.59
2022-10-11T05:04:10.800Z,101349.95
2022-10-11T05:05:12.601Z,101356.05
2022-10-11T05:06:14.697Z,101354.38
2022-10-11T05:07:16.574Z,101356.05
2022-10-11T05:08:18.402Z,101357.75
2022-10-11T05:09:20.212Z,101357.75
2022-10-11T05:10:22.004Z,101355.16
2022-10-11T05:11:23.737Z,101354.31
2022-10-11T05:12:25.525Z,101357.81
2022-10-11T05:13:27.685Z,101354.34
2022-10-11T05:14:29.507Z,101356.95
2022-10-11T05:15:31.321Z,101355.21
2022-10-11T05:16:33.141Z,101362.19
2022-10-11T05:17:34.935Z,101368.28
2022-10-11T05:18:36.812Z,101367.45
2022-10-11T05:19:38.623Z,101366.52
2022-10-11T05:20:40.437Z,101364.79
2022-10-11T05:21:42.243Z,101369.97
2022-10-11T05:22:44.100Z,101361.25
2022-10-11T05:23:45.959Z,101365.59
2022-10-11T05:24:47.756Z,101366.46
2022-10-11T05:25:49.583Z,101366.52
2022-10-11T05:26:51.396Z,101371.75
2022-10-11T05:27:53.228Z,101370.11
2022-10-11T05:28:55.203Z,101365.71
2022-10-11T05:29:56.974Z,101370.05
2022-10-11T05:30:58.771Z,101372.69
2022-10-11T05:32:00.601Z,101377.89
2022-10-11T05:33:02.418Z,101380.53
2022-10-11T05:34:04.179Z,101375.29
2022-10-11T05:35:05.960Z,101376.19
2022-10-11T05:36:08.249Z,101374.45
2022-10-11T05:37:10.543Z,101378.79
2022-10-11T05:38:12.395Z,101381.36
2022-10-11T05:39:14.238Z,101378.76
2022-10-11T05:40:16.042Z,101379.59
2022-10-11T05:41:17.856Z,101377.84
2022-10-11T05:42:19.674Z,101374.30
2022-10-11T05:43:21.569Z,101379.52
2022-10-11T05:44:23.384Z,101377.78
2022-10-11T05:45:25.111Z,101375.20
2022-10-11T05:46:26.920Z,101378.70
2022-10-11T05:47:28.738Z,101388.25
2022-10-11T05:48:30.562Z,101381.30
2022-10-11T05:49:32.441Z,101386.55
2022-10-11T05:50:34.257Z,101388.34
2022-10-11T05:51:36.068Z,101384.89
2022-10-11T05:52:37.904Z,101380.59
2022-10-11T05:53:39.815Z,101386.75
2022-10-11T05:54:41.664Z,101380.70
2022-10-11T05:55:43.488Z,101382.55
2022-10-11T05:56:45.315Z,101386.07
2022-10-11T05:57:47.126Z,101390.47
2022-10-11T05:58:48.912Z,101388.77
2022-10-11T05:59:50.768Z,101386.18
2022-10-11T06:00:52.627Z,101389.68
2022-10-11T06:01:54.655Z,101395.82
2022-10-11T06:02:56.650Z,101388.84
2022-10-11T06:03:58.432Z,101384.52
2022-10-11T06:05:00.282Z,101385.45
2022-10-11T06:06:02.200Z,101388.14
2022-10-11T06:07:03.980Z,101388.14
2022-10-11T06:08:05.676Z,101388.16
2022-10-11T06:09:07.568Z,101393.41
2022-10-11T06:10:09.726Z,101384.74
2022-10-11T06:11:12.205Z,101393.45
2022-10-11T06:12:14.008Z,101394.30
2022-10-11T06:13:15.817Z,101397.80
2022-10-11T06:14:17.603Z,101396.90
2022-10-11T06:15:20.896Z,101398.64
2022-10-11T06:16:22.735Z,101399.42
2022-10-11T06:17:24.565Z,101396.82
2022-10-11T06:18:26.388Z,101396.80
2022-10-11T06:19:28.193Z,101396.80
2022-10-11T06:20:30.032Z,101395.03
2022-10-11T06:21:31.870Z,101394.13
2022-10-11T06:22:33.696Z,101397.58
2022-10-11T06:23:35.519Z,101394.13
2022-10-11T06:24:37.333Z,101395.03
2022-10-11T06:25:39.157Z,101394.16
2022-10-11T06:26:41.066Z,101396.80
2022-10-11T06:27:42.866Z,101398.53
2022-10-11T06:28:44.765Z,101395.92
2022-10-11T06:29:46.594Z,101399.40
2022-10-11T06:30:48.449Z,101395.09
2022-10-11T06:31:50.274Z,101393.34
2022-10-11T06:32:52.126Z,101392.45
2022-10-11T06:33:53.801Z,101394.16
2022-10-11T06:34:55.528Z,101395.06
2022-10-11T06:35:57.348Z,101401.95
2022-10-11T06:36:59.081Z,101394.11
2022-10-11T06:38:00.909Z,101397.47
2022-10-11T06:39:02.714Z,101398.31
2022-10-11T06:40:04.827Z,101404.39
2022-10-11T06:41:06.684Z,101403.50
2022-10-11T06:42:08.468Z,101404.36
2022-10-11T06:43:10.195Z,101398.29
2022-10-11T06:44:14.144Z,101400.84
2022-10-11T06:45:15.593Z,101398.17
2022-10-11T06:46:17.422Z,101400.75
2022-10-11T06:47:19.224Z,101401.59
2022-10-11T06:48:21.019Z,101403.36
2022-10-11T06:49:23.620Z,101403.41
2022-10-11T06:50:47.227Z,101406.02
2022-10-11T06:51:29.263Z,101404.25
2022-10-11T06:52:30.985Z,101410.33
2022-10-11T06:53:32.786Z,101411.23
2022-10-11T06:54:34.585Z,101410.39
2022-10-11T06:55:36.467Z,101416.52
2022-10-11T06:56:38.292Z,101414.81
2022-10-11T06:57:39.977Z,101414.81
2022-10-11T06:58:41.783Z,101418.23
2022-10-11T06:59:43.603Z,101417.36
2022-10-11T07:00:45.418Z,101417.36
2022-10-11T07:01:47.195Z,101420.86
2022-10-11T07:02:49.015Z,101425.17
2022-10-11T07:03:51.643Z,101418.14
2022-10-11T07:04:53.475Z,101424.23
2022-10-11T07:05:57.922Z,101424.20
2022-10-11T07:06:58.954Z,101421.53
2022-10-11T07:08:00.764Z,101418.87
2022-10-11T07:09:02.544Z,101422.34
2022-10-11T07:10:04.239Z,101425.81
2022-10-11T07:11:06.057Z,101429.28
2022-10-11T07:12:07.931Z,101425.84
2022-10-11T07:13:13.534Z,101428.48
2022-10-11T07:14:13.339Z,101429.41
2022-10-11T07:15:15.159Z,101431.20
2022-10-11T07:16:16.978Z,101430.41
2022-10-11T07:17:18.810Z,101436.52
2022-10-11T07:18:20.599Z,101433.92
2022-10-11T07:19:22.416Z,101434.79
2022-10-11T07:20:24.226Z,101436.52
2022-10-11T07:21:25.999Z,101436.55
2022-10-11T07:22:27.829Z,101440.08
2022-10-11T07:23:29.613Z,101446.13
2022-10-11T07:24:31.605Z,101440.98
2022-10-11T07:25:33.401Z,101443.59
2022-10-11T07:26:38.755Z,101434.95
2022-10-11T07:27:38.781Z,101441.94
2022-10-11T07:28:40.675Z,101434.15
2022-10-11T07:29:42.475Z,101441.09
2022-10-11T07:30:44.212Z,101433.33
2022-10-11T07:31:46.038Z,101438.59
2022-10-11T07:32:47.904Z,101436.89
2022-10-11T07:33:49.683Z,101435.96
2022-10-11T07:34:51.509Z,101443.75
2022-10-11T07:35:53.348Z,101433.33
2022-10-11T07:36:55.168Z,101435.91
2022-10-11T07:37:56.989Z,101432.44
2022-10-11T07:38:58.794Z,101435.88
2022-10-11T07:40:00.614Z,101430.64
2022-10-11T07:41:02.393Z,101439.33
2022-10-11T07:42:04.263Z,101432.35
2022-10-11T07:43:06.089Z,101428.81
2022-10-11T07:44:07.903Z,101430.58
2022-10-11T07:45:09.714Z,101427.14
2022-10-11T07:46:11.826Z,101427.20
2022-10-11T07:47:13.638Z,101430.70
2022-10-11T07:48:15.480Z,101428.09
2022-10-11T07:49:17.279Z,101431.62
2022-10-11T07:50:19.105Z,101427.30
2022-10-11T07:51:20.939Z,101425.56
2022-10-11T07:52:22.920Z,101428.23
2022-10-11T07:53:24.751Z,101427.41
2022-10-11T07:54:26.449Z,101423.99
2022-10-11T07:55:28.276Z,101425.81
2022-10-11T07:56:30.107Z,101422.36
2022-10-11T07:57:32.216Z,101423.29
2022-10-11T07:58:33.942Z,101428.53
2022-10-11T07:59:35.747Z,101425.95
2022-10-11T08:00:37.432Z,101421.60
2022-10-11T08:01:39.349Z,101423.39
2022-10-11T08:02:41.132Z,101421.68
2022-10-11T08:03:42.885Z,101419.97
2022-10-11T08:04:44.711Z,101418.25
2022-10-11T08:05:46.518Z,101411.28
2022-10-11T08:06:52.458Z,101409.53
2022-10-11T08:07:51.962Z,101420.86
2022-10-11T08:08:53.820Z,101421.73
2022-10-11T08:09:55.629Z,101419.09
2022-10-11T08:10:57.460Z,101416.44
2022-10-11T08:11:59.254Z,101412.05
2022-10-11T08:13:04.463Z,101406.83
2022-10-11T08:14:04.931Z,101415.58
2022-10-11T08:15:06.888Z,101415.59
2022-10-11T08:16:09.061Z,101414.70
2022-10-11T08:17:10.941Z,101417.28
2022-10-11T08:18:12.766Z,101414.70
2022-10-11T08:19:14.600Z,101416.47
2022-10-11T08:20:16.405Z,101419.94
2022-10-11T08:21:18.223Z,101415.67
2022-10-11T08:22:20.017Z,101420.89
2022-10-11T08:23:21.838Z,101413.95
2022-10-11T08:24:23.795Z,101418.33
2022-10-11T08:25:25.596Z,101415.72
2022-10-11T08:26:27.426Z,101421.83
2022-10-11T08:27:29.329Z,101414.88
2022-10-11T08:28:31.192Z,101410.58
2022-10-11T08:29:33.014Z,101412.31
2022-10-11T08:30:34.873Z,101411.50
2022-10-11T08:31:36.694Z,101410.63
2022-10-11T08:32:38.642Z,101418.48
2022-10-11T08:33:40.455Z,101415.84
2022-10-11T08:34:42.301Z,101416.69
2022-10-11T08:35:44.125Z,101418.45
2022-10-11T08:36:45.946Z,101418.48
2022-10-11T08:37:47.745Z,101423.74
2022-10-11T08:38:49.568Z,101422.92
2022-10-11T08:39:51.427Z,101416.86
2022-10-11T08:40:53.258Z,101417.76
2022-10-11T08:41:55.061Z,101419.48
2022-10-11T08:42:56.882Z,101420.39
2022-10-11T08:43:59.004Z,101420.39
2022-10-11T08:45:16.197Z,101417.78
2022-10-11T08:46:05.035Z,101409.95
2022-10-11T08:47:07.116Z,101426.45
2022-10-11T08:48:08.941Z,101419.48
2022-10-11T08:49:10.765Z,101423.91
2022-10-11T08:50:13.037Z,101421.33
2022-10-11T08:51:14.871Z,101419.59
2022-10-11T08:52:16.697Z,101424.84
2022-10-11T08:53:18.531Z,101425.80
2022-10-11T08:54:20.371Z,101427.58
2022-10-11T08:55:22.235Z,101425.86
2022-10-11T08:56:24.064Z,101432.88
2022-10-11T08:57:25.890Z,101427.67
2022-10-11T08:58:27.691Z,101429.38
2022-10-11T08:59:29.522Z,101431.95
2022-10-11T09:00:31.383Z,101425.89
2022-10-11T09:01:33.247Z,101425.93
2022-10-11T09:02:55.741Z,101421.62
2022-10-11T09:03:38.759Z,101431.23
2022-10-11T09:04:40.577Z,101432.12
2022-10-11T09:05:42.431Z,101432.15
2022-10-11T09:06:44.258Z,101426.11
2022-10-11T09:07:46.112Z,101427.01
2022-10-11T09:08:47.921Z,101429.66
2022-10-11T09:09:49.730Z,101433.18
2022-10-11T09:10:51.642Z,101428.84
2022-10-11T09:11:53.476Z,101433.27
2022-10-11T09:12:55.272Z,101432.45
2022-10-11T09:13:57.088Z,101436.82
2022-10-11T09:14:59.003Z,101430.76
2022-10-11T09:16:00.919Z,101430.78
2022-10-11T09:17:02.734Z,101436.94
2022-10-11T09:18:04.554Z,101429.14
2022-10-11T09:19:06.379Z,101432.64
2022-10-11T09:20:08.614Z,101430.05
2022-10-11T09:21:10.462Z,101434.42
2022-10-11T09:22:12.290Z,101426.61
2022-10-11T09:23:14.130Z,101425.75
2022-10-11T09:24:15.936Z,101434.48
2022-10-11T09:25:17.739Z,101425.75
2022-10-11T09:26:19.701Z,101427.50
2022-10-11T09:27:33.048Z,101429.25
2022-10-11T09:28:25.241Z,101427.46
2022-10-11T09:29:27.098Z,101428.30
2022-10-11T09:30:28.950Z,101422.23
2022-10-11T09:31:30.814Z,101429.23
2022-10-11T09:32:32.642Z,101428.34
2022-10-11T09:33:34.467Z,101424.02
2022-10-11T09:34:36.273Z,101432.74
2022-10-11T09:35:38.108Z,101423.16
2022-10-11T09:36:39.983Z,101425.83
2022-10-11T09:37:41.787Z,101420.63
2022-10-11T09:38:43.607Z,101425.83
2022-10-11T09:39:45.413Z,101430.15
2022-10-11T09:40:47.238Z,101424.06
2022-10-11T09:41:52.118Z,101425.77
2022-10-11T09:42:53.972Z,101434.56
2022-10-11T09:43:55.779Z,101425.84
2022-10-11T09:44:57.652Z,101426.77
2022-10-11T09:45:59.805Z,101420.69
2022-10-11T09:47:01.670Z,101420.71
2022-10-11T09:48:03.624Z,101423.33
2022-10-11T09:49:05.406Z,101428.55
2022-10-11T09:50:07.519Z,101424.19
2022-10-11T09:51:09.350Z,101425.95
2022-10-11T09:52:11.240Z,101425.98
2022-10-11T09:53:13.057Z,101419.88
2022-10-11T09:54:14.842Z,101423.41
2022-10-11T09:55:19.706Z,101421.69
2022-10-11T09:56:20.161Z,101415.61
2022-10-11T09:57:22.019Z,101419.95
2022-10-11T09:58:23.802Z,101415.66
2022-10-11T09:59:25.618Z,101424.38
2022-10-11T10:00:27.465Z,101419.16
2022-10-11T10:01:29.357Z,101418.30
2022-10-11T10:02:31.128Z,101419.98
2022-10-11T10:03:32.931Z,101415.61
2022-10-11T10:04:34.735Z,101419.06
2022-10-11T10:05:36.548Z,101419.92
2022-10-11T10:06:38.540Z,101413.85
2022-10-11T10:07:40.376Z,101411.26
2022-10-11T10:08:42.158Z,101412.10
2022-10-11T10:09:43.961Z,101411.27
2022-10-11T10:10:45.663Z,101413.00
2022-10-11T10:11:47.471Z,101413.00
2022-10-11T10:12:49.407Z,101409.47
2022-10-11T10:13:51.195Z,101413.00
2022-10-11T10:14:53.009Z,101412.14
2022-10-11T10:15:54.799Z,101408.68
2022-10-11T10:16:56.665Z,101411.33
2022-10-11T10:17:58.503Z,101404.42
2022-10-11T10:19:00.306Z,101406.17
2022-10-11T10:20:02.008Z,101414.02
2022-10-11T10:21:03.814Z,101404.48
2022-10-11T10:22:05.606Z,101420.20
2022-10-11T10:23:07.436Z,101408.02
2022-10-11T10:24:09.216Z,101417.63
2022-10-11T10:25:11.027Z,101409.81
2022-10-11T10:26:13.024Z,101413.29
2022-10-11T10:27:14.817Z,101409.83
2022-10-11T10:28:16.750Z,101411.55
2022-10-11T10:29:18.547Z,101406.33
2022-10-11T10:30:20.472Z,101418.55
2022-10-11T10:31:22.266Z,101408.98
2022-10-11T10:32:24.092Z,101405.52
2022-10-11T10:33:25.921Z,101402.05
2022-10-11T10:34:27.718Z,101410.78
2022-10-11T10:35:29.625Z,101415.18
2022-10-11T10:36:31.382Z,101413.43
2022-10-11T10:37:33.060Z,101410.84
2022-10-11T10:38:34.791Z,101409.13
2022-10-11T10:39:36.502Z,101416.10
2022-10-11T10:40:38.214Z,101405.65
2022-10-11T10:41:39.910Z,101409.16
2022-10-11T10:42:41.686Z,101410.89
2022-10-11T10:43:43.419Z,101410.92
2022-10-11T10:44:45.210Z,101412.67
2022-10-11T10:45:47.111Z,101411.83
2022-10-11T10:46:48.911Z,101412.71
2022-10-11T10:47:52.419Z,101410.08
2022-10-11T10:49:57.910Z,101407.44
2022-10-11T10:50:59.673Z,101405.67
2022-10-11T10:52:01.466Z,101407.44
2022-10-11T10:53:03.164Z,101407.47
2022-10-11T10:54:05.041Z,101407.44
2022-10-11T10:55:06.832Z,101410.05
2022-10-11T10:56:09.226Z,101414.45
2022-10-11T10:57:11.329Z,101407.47
2022-10-11T10:58:17.903Z,101412.71
2022-10-11T10:59:16.664Z,101412.72
2022-10-11T11:00:18.444Z,101415.34
2022-10-11T11:01:20.361Z,101407.50
2022-10-11T11:02:39.514Z,101411.84
2022-10-11T11:03:25.951Z,101407.48
2022-10-11T11:04:27.764Z,101406.64
2022-10-11T11:05:29.462Z,101409.27
2022-10-11T11:06:34.191Z,101409.29
2022-10-11T11:07:34.873Z,101401.45
2022-10-11T11:08:36.683Z,101408.45
2022-10-11T11:09:38.499Z,101410.16
2022-10-11T11:10:40.194Z,101418.00
2022-10-11T11:11:41.986Z,101413.66
2022-10-11T11:12:43.706Z,101407.55
2022-10-11T11:13:45.510Z,101412.80
2022-10-11T11:14:47.337Z,101409.34
2022-10-11T11:15:49.031Z,101409.37
2022-10-11T11:16:50.842Z,101411.13
2022-10-11T11:17:52.628Z,101400.70
2022-10-11T11:18:54.334Z,101408.55
2022-10-11T11:19:56.209Z,101403.31
2022-10-11T11:20:58.010Z,101403.33
2022-10-11T11:21:59.821Z,101405.95
2022-10-11T11:23:01.594Z,101416.42
2022-10-11T11:24:03.277Z,101405.97
2022-10-11T11:25:04.995Z,101411.20
2022-10-11T11:26:07.432Z,101410.36
2022-10-11T11:27:09.487Z,101409.47
2022-10-11T11:28:11.322Z,101412.07
2022-10-11T11:29:13.067Z,101412.95
2022-10-11T11:30:14.993Z,101408.59
2022-10-11T11:31:16.792Z,101412.09
2022-10-11T11:32:18.596Z,101415.59
2022-10-11T11:33:20.380Z,101411.25
2022-10-11T11:34:22.196Z,101406.87
2022-10-11T11:35:24.021Z,101411.25
2022-10-11T11:36:25.825Z,101406.02
2022-10-11T11:37:27.617Z,101413.86
2022-10-11T11:38:29.917Z,101413.86
2022-10-11T11:39:31.810Z,101413.86
2022-10-11T11:40:33.638Z,101419.10
2022-10-11T11:41:35.423Z,101419.12
2022-10-11T11:42:38.634Z,101416.52
2022-10-11T11:43:43.677Z,101417.39
2022-10-11T11:44:46.695Z,101420.05
2022-10-11T11:45:49.839Z,101417.45
2022-10-11T11:46:51.644Z,101410.50
2022-10-11T11:47:54.639Z,101415.73
2022-10-11T11:48:57.206Z,101409.61